createdAt,value
2022-12-03T00:00:17.819Z,101907.22
2022-12-03T00:02:44.271Z,101896.75
2022-12-03T00:05:10.783Z,101897.66
2022-12-03T00:07:37.558Z,101908.09
2022-12-03T00:10:05.306Z,101907.16
2022-12-03T00:12:31.651Z,101910.69
2022-12-03T00:14:58.248Z,101909.06
2022-12-03T00:17:24.736Z,101909.91
2022-12-03T00:19:51.079Z,101906.31
2022-12-03T00:22:17.371Z,101913.34
2022-12-03T00:24:43.689Z,101906.28
2022-12-03T00:27:10.017Z,101903.66
2022-12-03T00:29:38.147Z,101907.09
2022-12-03T00:32:04.620Z,101902.81
2022-12-03T00:34:31.064Z,101908.03
2022-12-03T00:36:57.392Z,101903.59
2022-12-03T00:39:23.712Z,101898.31
2022-12-03T00:41:50.057Z,101899.22
2022-12-03T00:44:17.578Z,101893.91
2022-12-03T00:46:43.995Z,101904.56
2022-12-03T00:49:15.376Z,101893.91
2022-12-03T00:51:41.705Z,101893.09
2022-12-03T00:54:08.245Z,101896.59
2022-12-03T00:56:34.610Z,101899.16
2022-12-03T00:59:00.940Z,101894.88
2022-12-03T01:01:27.271Z,101904.50
2022-12-03T01:03:53.635Z,101898.38
2022-12-03T01:06:20.272Z,101904.44
2022-12-03T01:08:46.611Z,101906.28
2022-12-03T01:11:31.482Z,101906.16
2022-12-03T01:13:58.224Z,101908.00
2022-12-03T01:16:24.589Z,101903.59
2022-12-03T01:18:52.685Z,101904.50
2022-12-03T01:21:19.586Z,101912.38
2022-12-03T01:23:46.203Z,101912.47
2022-12-03T01:26:12.523Z,101916.00
2022-12-03T01:28:38.867Z,101907.16
2022-12-03T01:31:23.654Z,101910.72
2022-12-03T01:33:50.049Z,101915.94
2022-12-03T01:36:16.339Z,101904.44
2022-12-03T01:38:43.740Z,101907.16
2022-12-03T01:41:11.831Z,101910.66
2022-12-03T01:43:38.686Z,101906.28
2022-12-03T01:46:05.217Z,101907.16
2022-12-03T01:48:35.543Z,101899.19
2022-12-03T01:51:02.021Z,101905.41
2022-12-03T01:53:28.359Z,101900.81
2022-12-03T01:55:54.752Z,101903.59
2022-12-03T01:58:25.600Z,101897.34
2022-12-03T02:00:51.934Z,101902.66
2022-12-03T02:03:23.201Z,101898.31
2022-12-03T02:05:50.177Z,101897.44
2022-12-03T02:08:34.520Z,101907.22
2022-12-03T02:11:09.320Z,101902.00
2022-12-03T02:13:36.299Z,101902.84
2022-12-03T02:16:04.257Z,101894.00
2022-12-03T02:18:30.627Z,101894.81
2022-12-03T02:21:18.501Z,101898.31
2022-12-03T02:24:10.187Z,101894.88
2022-12-03T02:26:36.547Z,101893.97
2022-12-03T02:29:03.919Z,101889.59
2022-12-03T02:31:30.280Z,101882.56
2022-12-03T02:33:56.714Z,101887.81
2022-12-03T02:36:23.252Z,101883.38
2022-12-03T02:38:50.812Z,101879.03
2022-12-03T02:41:38.764Z,101875.41
2022-12-03T02:44:06.826Z,101872.84
2022-12-03T02:46:33.979Z,101871.13
2022-12-03T02:49:01.746Z,101871.97
2022-12-03T02:51:28.138Z,101881.66
2022-12-03T02:53:55.871Z,101875.41
2022-12-03T02:56:26.781Z,101870.25
2022-12-03T02:58:56.886Z,101872.03
2022-12-03T03:01:23.311Z,101875.59
2022-12-03T03:03:51.486Z,101873.66
2022-12-03T03:06:19.215Z,101875.53
2022-12-03T03:08:46.487Z,101866.66
2022-12-03T03:11:12.996Z,101866.81
2022-12-03T03:13:39.639Z,101863.22
2022-12-03T03:16:07.590Z,101863.31
2022-12-03T03:18:34.959Z,101865.03
2022-12-03T03:21:01.792Z,101861.50
2022-12-03T03:23:28.305Z,101864.06
2022-12-03T03:26:14.202Z,101864.25
2022-12-03T03:28:45.476Z,101857.13
2022-12-03T03:31:15.986Z,101865.00
2022-12-03T03:33:45.190Z,101860.63
2022-12-03T03:36:13.063Z,101860.66
2022-12-03T03:38:41.108Z,101856.28
2022-12-03T03:41:09.472Z,101859.03
2022-12-03T03:43:38.123Z,101866.91
2022-12-03T03:46:06.396Z,101863.41
2022-12-03T03:48:34.748Z,101866.84
2022-12-03T03:51:03.581Z,101859.03
2022-12-03T03:53:30.824Z,101859.91
2022-12-03T03:55:57.181Z,101857.16
2022-12-03T03:58:23.687Z,101858.13
2022-12-03T04:00:50.107Z,101861.88
2022-12-03T04:03:17.084Z,101851.31
2022-12-03T04:05:43.420Z,101849.41
2022-12-03T04:08:09.787Z,101854.69
2022-12-03T04:10:54.608Z,101846.84
2022-12-03T04:13:20.931Z,101844.19
2022-12-03T04:15:47.455Z,101844.28
2022-12-03T04:18:32.497Z,101844.22
2022-12-03T04:21:18.795Z,101843.34
2022-12-03T04:23:45.157Z,101845.25
2022-12-03T04:26:30.076Z,101836.31
2022-12-03T04:28:56.465Z,101835.50
2022-12-03T04:31:41.149Z,101828.50
2022-12-03T04:34:27.752Z,101838.06
2022-12-03T04:36:54.861Z,101829.25
2022-12-03T04:39:21.206Z,101823.94
2022-12-03T04:41:47.519Z,101831.13
2022-12-03T04:44:32.423Z,101823.97
2022-12-03T04:47:01.942Z,101831.03
2022-12-03T04:49:28.536Z,101826.59
2022-12-03T04:51:54.855Z,101840.75
2022-12-03T04:54:21.188Z,101831.88
2022-12-03T04:56:47.492Z,101829.44
2022-12-03T04:59:16.577Z,101840.03
2022-12-03T05:01:43.865Z,101834.66
2022-12-03T05:04:10.770Z,101835.50
2022-12-03T05:06:37.149Z,101830.34
2022-12-03T05:09:03.623Z,101824.28
2022-12-03T05:11:30.135Z,101840.03
2022-12-03T05:13:56.617Z,101840.00
2022-12-03T05:16:23.013Z,101833.72
2022-12-03T05:18:49.382Z,101834.63
2022-12-03T05:21:15.858Z,101833.72
2022-12-03T05:23:42.566Z,101827.69
2022-12-03T05:26:08.917Z,101828.50
2022-12-03T05:28:35.332Z,101838.06
2022-12-03T05:31:01.720Z,101832.91
2022-12-03T05:33:28.192Z,101830.22
2022-12-03T05:35:54.566Z,101838.19
2022-12-03T05:38:20.872Z,101829.34
2022-12-03T05:40:47.188Z,101840.00
2022-12-03T05:43:13.620Z,101827.66
2022-12-03T05:45:41.409Z,101835.50
2022-12-03T05:48:13.815Z,101834.63
2022-12-03T05:50:43.839Z,101834.63
2022-12-03T05:53:17.163Z,101832.06
2022-12-03T05:55:43.687Z,101831.94
2022-12-03T05:58:10.162Z,101832.84
2022-12-03T06:00:42.430Z,101831.94
2022-12-03T06:03:09.991Z,101829.34
2022-12-03T06:05:36.459Z,101821.50
2022-12-03T06:08:02.859Z,101817.09
2022-12-03T06:10:29.670Z,101818.06
2022-12-03T06:12:56.309Z,101818.16
2022-12-03T06:15:23.064Z,101821.75
2022-12-03T06:17:49.536Z,101820.84
2022-12-03T06:20:18.298Z,101819.00
2022-12-03T06:22:44.908Z,101814.66
2022-12-03T06:25:12.156Z,101811.09
2022-12-03T06:27:38.551Z,101819.00
2022-12-03T06:30:06.757Z,101812.88
2022-12-03T06:32:33.166Z,101823.47
2022-12-03T06:34:59.494Z,101814.56
2022-12-03T06:37:25.832Z,101814.75
2022-12-03T06:39:52.140Z,101812.94
2022-12-03T06:42:18.571Z,101822.63
2022-12-03T06:44:44.871Z,101820.09
2022-12-03T06:47:11.174Z,101811.34
2022-12-03T06:49:37.485Z,101819.13
2022-12-03T06:52:05.309Z,101804.16
2022-12-03T06:54:31.651Z,101816.50
2022-12-03T06:56:57.984Z,101819.13
2022-12-03T06:59:24.321Z,101819.22
2022-12-03T07:01:50.641Z,101823.47
2022-12-03T07:04:17.010Z,101827.09
2022-12-03T07:06:43.675Z,101824.44
2022-12-03T07:09:10.018Z,101821.88
2022-12-03T07:11:40.260Z,101825.44
2022-12-03T07:14:08.236Z,101817.56
2022-12-03T07:16:35.824Z,101810.59
2022-12-03T07:19:03.387Z,101814.94
2022-12-03T07:21:29.711Z,101807.03
2022-12-03T07:23:56.104Z,101816.81
2022-12-03T07:26:22.443Z,101813.31
2022-12-03T07:28:48.763Z,101812.47
2022-12-03T07:31:16.201Z,101815.03
2022-12-03T07:33:42.715Z,101824.69
2022-12-03T07:36:09.651Z,101822.00
2022-12-03T07:38:36.120Z,101827.38
2022-12-03T07:41:02.462Z,101824.69
2022-12-03T07:43:28.785Z,101827.31
2022-12-03T07:45:55.094Z,101824.63
2022-12-03T07:48:21.403Z,101826.34
2022-12-03T07:50:47.786Z,101823.75
2022-12-03T07:53:15.056Z,101816.75
2022-12-03T07:55:41.380Z,101825.47
2022-12-03T07:58:08.920Z,101812.25
2022-12-03T08:00:35.291Z,101808.94
2022-12-03T08:03:01.670Z,101817.56
2022-12-03T08:05:29.474Z,101807.84
2022-12-03T08:07:55.980Z,101820.16
2022-12-03T08:10:25.125Z,101813.09
2022-12-03T08:12:51.573Z,101812.13
2022-12-03T08:15:20.366Z,101816.66
2022-12-03T08:17:53.515Z,101810.47
2022-12-03T08:20:22.200Z,101823.66
2022-12-03T08:22:51.227Z,101819.19
2022-12-03T08:25:28.459Z,101822.72
2022-12-03T08:28:12.632Z,101821.75
2022-12-03T08:30:40.015Z,101815.66
2022-12-03T08:33:28.259Z,101816.47
2022-12-03T08:35:54.898Z,101817.38
2022-12-03T08:38:23.844Z,101811.16
2022-12-03T08:40:52.457Z,101817.41
2022-12-03T08:43:25.946Z,101805.06
2022-12-03T08:45:54.516Z,101813.78
2022-12-03T08:48:36.739Z,101810.25
2022-12-03T08:51:21.466Z,101809.38
2022-12-03T08:53:51.938Z,101818.16
2022-12-03T08:56:25.104Z,101818.16
2022-12-03T08:58:54.137Z,101819.06
2022-12-03T09:01:30.797Z,101822.59
2022-12-03T09:04:13.459Z,101823.47
2022-12-03T09:06:39.824Z,101822.56
2022-12-03T09:09:06.966Z,101817.28
2022-12-03T09:11:33.403Z,101827.88
2022-12-03T09:13:59.733Z,101820.03
2022-12-03T09:16:26.102Z,101820.03
2022-12-03T09:18:52.560Z,101817.47
2022-12-03T09:21:18.884Z,101819.19
2022-12-03T09:23:45.192Z,101818.97
2022-12-03T09:26:11.494Z,101819.84
2022-12-03T09:28:37.805Z,101834.03
2022-12-03T09:31:04.138Z,101829.72
2022-12-03T09:33:32.271Z,101828.88
2022-12-03T09:35:59.438Z,101829.78
2022-12-03T09:38:25.989Z,101827.88
2022-12-03T09:40:53.854Z,101813.72
2022-12-03T09:43:20.630Z,101819.06
2022-12-03T09:45:48.935Z,101815.50
2022-12-03T09:48:18.147Z,101818.13
2022-12-03T09:50:44.928Z,101819.84
2022-12-03T09:53:17.447Z,101827.84
2022-12-03T09:55:45.578Z,101818.13
2022-12-03T09:58:13.898Z,101812.00
2022-12-03T10:00:41.873Z,101804.16
2022-12-03T10:03:12.347Z,101811.00
2022-12-03T10:05:43.734Z,101803.09
2022-12-03T10:08:18.376Z,101797.88
2022-12-03T10:10:44.868Z,101800.47
2022-12-03T10:13:25.673Z,101794.28
2022-12-03T10:15:55.373Z,101786.41
2022-12-03T10:18:24.834Z,101781.94
2022-12-03T10:20:51.984Z,101781.88
2022-12-03T10:23:29.646Z,101787.28
2022-12-03T10:26:02.911Z,101781.22
2022-12-03T10:28:38.938Z,101783.78
2022-12-03T10:31:07.715Z,101777.53
2022-12-03T10:33:44.576Z,101772.25
2022-12-03T10:36:20.615Z,101773.91
2022-12-03T10:39:04.951Z,101767.03
2022-12-03T10:41:31.347Z,101753.56
2022-12-03T10:44:14.771Z,101751.78
2022-12-03T10:46:41.303Z,101739.41
2022-12-03T10:49:17.005Z,101741.06
2022-12-03T10:51:44.547Z,101740.25
2022-12-03T10:54:21.100Z,101742.88
2022-12-03T10:56:49.231Z,101734.06
2022-12-03T10:59:22.632Z,101733.97
2022-12-03T11:01:50.495Z,101728.78
2022-12-03T11:04:32.228Z,101732.31
2022-12-03T11:06:58.824Z,101731.38
2022-12-03T11:09:29.395Z,101724.31
2022-12-03T11:11:55.952Z,101719.22
2022-12-03T11:14:51.391Z,101718.38
2022-12-03T11:18:06.542Z,101714.94
2022-12-03T11:20:35.993Z,101707.81
2022-12-03T11:23:02.343Z,101703.66
2022-12-03T11:25:28.659Z,101706.22
2022-12-03T11:28:10.187Z,101710.66
2022-12-03T11:30:48.918Z,101699.91
2022-12-03T11:33:30.065Z,101706.13
2022-12-03T11:36:05.447Z,101698.41
2022-12-03T11:38:38.092Z,101703.53
2022-12-03T11:41:10.424Z,101693.75
2022-12-03T11:43:52.059Z,101700.75
2022-12-03T11:46:25.324Z,101698.09
2022-12-03T11:48:55.425Z,101698.09
2022-12-03T11:51:24.370Z,101699.03
2022-12-03T11:53:52.963Z,101695.66
2022-12-03T11:56:23.850Z,101684.00
2022-12-03T11:58:59.217Z,101686.75
2022-12-03T12:01:40.500Z,101682.28
2022-12-03T12:04:25.741Z,101673.41
2022-12-03T12:06:53.604Z,101673.63
2022-12-03T12:09:52.665Z,101661.22
2022-12-03T12:12:40.768Z,101663.94
2022-12-03T12:15:32.809Z,101656.88
2022-12-03T12:18:37.780Z,101652.50
2022-12-03T12:21:42.535Z,101650.72
2022-12-03T12:24:32.151Z,101646.41
2022-12-03T12:27:01.231Z,101650.69
2022-12-03T12:29:28.112Z,101639.25
2022-12-03T12:32:00.340Z,101640.09
2022-12-03T12:34:26.776Z,101641.69
2022-12-03T12:36:55.915Z,101634.78
2022-12-03T12:39:22.361Z,101632.00
2022-12-03T12:41:50.396Z,101631.16
2022-12-03T12:44:18.249Z,101623.19
2022-12-03T12:46:48.464Z,101631.84
2022-12-03T12:49:24.976Z,101632.00
2022-12-03T12:51:51.339Z,101626.78
2022-12-03T12:54:18.656Z,101620.47
2022-12-03T12:56:49.679Z,101626.78
2022-12-03T12:59:20.028Z,101622.44
2022-12-03T13:01:49.017Z,101617.94
2022-12-03T13:04:22.504Z,101609.09
2022-12-03T13:06:51.610Z,101611.66
2022-12-03T13:09:25.851Z,101611.66
2022-12-03T13:12:00.647Z,101613.38
2022-12-03T13:14:36.777Z,101610.88
2022-12-03T13:17:24.431Z,101613.50
2022-12-03T13:20:00.584Z,101612.56
2022-12-03T13:22:31.659Z,101604.59
2022-12-03T13:25:06.764Z,101606.59
2022-12-03T13:27:33.115Z,101603.03
2022-12-03T13:30:13.414Z,101602.00
2022-12-03T13:32:41.452Z,101595.91
2022-12-03T13:35:35.791Z,101599.63
2022-12-03T13:38:02.986Z,101602.28
2022-12-03T13:40:32.800Z,101592.59
2022-12-03T13:42:59.335Z,101591.78
2022-12-03T13:45:39.090Z,101585.28
2022-12-03T13:48:24.733Z,101591.47
2022-12-03T13:50:53.159Z,101577.50
2022-12-03T13:53:29.110Z,101586.28
2022-12-03T13:56:03.179Z,101586.44
2022-12-03T13:58:29.558Z,101592.56
2022-12-03T14:00:56.037Z,101581.03
2022-12-03T14:03:23.269Z,101579.19
2022-12-03T14:05:49.584Z,101580.09
2022-12-03T14:08:15.951Z,101582.72
2022-12-03T14:10:42.319Z,101573.09
2022-12-03T14:13:08.707Z,101578.34
2022-12-03T14:15:34.998Z,101576.72
2022-12-03T14:18:02.206Z,101570.59
2022-12-03T14:20:28.522Z,101580.25
2022-12-03T14:22:59.359Z,101582.97
2022-12-03T14:25:26.350Z,101581.09
2022-12-03T14:27:52.647Z,101575.91
2022-12-03T14:30:19.051Z,101576.69
2022-12-03T14:32:45.455Z,101568.84
2022-12-03T14:35:11.752Z,101569.69
2022-12-03T14:37:38.107Z,101567.91
2022-12-03T14:40:07.188Z,101567.91
2022-12-03T14:42:33.558Z,101575.78
2022-12-03T14:45:00.004Z,101580.22
2022-12-03T14:47:26.303Z,101571.44
2022-12-03T14:49:53.268Z,101583.78
2022-12-03T14:52:20.376Z,101583.88
2022-12-03T14:54:46.706Z,101574.94
2022-12-03T14:57:14.772Z,101584.72
2022-12-03T14:59:42.402Z,101579.63
2022-12-03T15:02:10.702Z,101582.25
2022-12-03T15:04:37.998Z,101578.75
2022-12-03T15:07:04.868Z,101580.47
2022-12-03T15:09:31.266Z,101576.97
2022-12-03T15:11:57.601Z,101568.13
2022-12-03T15:14:24.116Z,101567.06
2022-12-03T15:16:50.584Z,101569.66
2022-12-03T15:19:16.976Z,101578.44
2022-12-03T15:21:43.337Z,101574.09
2022-12-03T15:24:10.410Z,101569.69
2022-12-03T15:26:37.023Z,101570.78
2022-12-03T15:29:03.366Z,101571.78
2022-12-03T15:31:29.757Z,101577.78
2022-12-03T15:33:56.078Z,101572.47
2022-12-03T15:36:22.440Z,101561.16
2022-12-03T15:38:48.833Z,101569.06
2022-12-03T15:41:21.522Z,101565.66
2022-12-03T15:43:48.553Z,101565.59
2022-12-03T15:46:14.946Z,101564.88
2022-12-03T15:48:41.424Z,101569.06
2022-12-03T15:51:07.955Z,101567.31
2022-12-03T15:53:34.283Z,101563.88
2022-12-03T15:56:00.595Z,101567.28
2022-12-03T15:58:26.902Z,101566.53
2022-12-03T16:00:53.199Z,101570.16
2022-12-03T16:03:19.652Z,101566.69
2022-12-03T16:05:46.068Z,101566.69
2022-12-03T16:08:12.470Z,101576.44
2022-12-03T16:10:39.439Z,101576.38
2022-12-03T16:13:05.806Z,101570.25
2022-12-03T16:15:32.181Z,101580.00
2022-12-03T16:17:58.548Z,101571.25
2022-12-03T16:20:24.851Z,101567.78
2022-12-03T16:22:52.064Z,101574.84
2022-12-03T16:25:18.574Z,101571.19
2022-12-03T16:27:44.873Z,101575.59
2022-12-03T16:30:11.661Z,101572.97
2022-12-03T16:32:38.043Z,101571.41
2022-12-03T16:35:04.630Z,101569.69
2022-12-03T16:37:31.146Z,101566.97
2022-12-03T16:39:57.542Z,101574.97
2022-12-03T16:42:24.357Z,101570.63
2022-12-03T16:45:02.822Z,101575.75
2022-12-03T16:47:33.578Z,101565.97
2022-12-03T16:50:02.295Z,101570.63
2022-12-03T16:52:28.756Z,101568.78
2022-12-03T16:54:55.074Z,101571.56
2022-12-03T16:57:21.619Z,101567.22
2022-12-03T16:59:47.936Z,101557.38
2022-12-03T17:02:14.428Z,101561.78
2022-12-03T17:04:40.952Z,101562.84
2022-12-03T17:07:07.264Z,101562.94
2022-12-03T17:09:33.569Z,101555.81
2022-12-03T17:11:59.938Z,101562.94
2022-12-03T17:14:31.423Z,101562.16
2022-12-03T17:16:59.496Z,101565.56
2022-12-03T17:19:25.815Z,101556.66
2022-12-03T17:21:53.866Z,101566.34
2022-12-03T17:24:21.225Z,101561.09
2022-12-03T17:26:47.532Z,101559.22
2022-12-03T17:29:14.154Z,101560.31
2022-12-03T17:31:42.620Z,101563.06
2022-12-03T17:34:09.718Z,101558.53
2022-12-03T17:36:36.060Z,101555.81
2022-12-03T17:39:02.618Z,101557.53
2022-12-03T17:41:28.975Z,101559.53
2022-12-03T17:43:55.337Z,101552.31
2022-12-03T17:46:21.754Z,101545.28
2022-12-03T17:48:48.104Z,101547.13
2022-12-03T17:51:14.557Z,101545.50
2022-12-03T17:53:41.659Z,101546.41
2022-12-03T17:56:08.203Z,101540.16
2022-12-03T17:58:34.811Z,101538.50
2022-12-03T18:01:03.063Z,101538.34
2022-12-03T18:03:32.742Z,101534.94
2022-12-03T18:05:59.151Z,101536.66
2022-12-03T18:08:25.463Z,101537.56
2022-12-03T18:10:51.838Z,101536.75
2022-12-03T18:13:18.196Z,101529.59
2022-12-03T18:15:44.698Z,101530.41
2022-12-03T18:18:11.450Z,101529.63
2022-12-03T18:20:38.049Z,101533.22
2022-12-03T18:23:05.037Z,101526.28
2022-12-03T18:25:31.617Z,101527.97
2022-12-03T18:27:58.163Z,101529.75
2022-12-03T18:30:24.560Z,101526.13
2022-12-03T18:32:50.907Z,101528.91
2022-12-03T18:35:17.926Z,101528.91
2022-12-03T18:37:44.309Z,101533.16
2022-12-03T18:40:17.845Z,101532.25
2022-12-03T18:42:44.292Z,101528.59
2022-12-03T18:45:11.895Z,101533.81
2022-12-03T18:47:38.833Z,101525.97
2022-12-03T18:50:06.319Z,101522.53
2022-12-03T18:52:32.815Z,101525.91
2022-12-03T18:54:59.116Z,101522.50
2022-12-03T18:57:25.440Z,101522.63
2022-12-03T18:59:52.003Z,101520.78
2022-12-03T19:03:01.915Z,101522.47
2022-12-03T19:05:10.026Z,101515.50
2022-12-03T19:07:36.871Z,101511.00
2022-12-03T19:10:04.469Z,101513.78
2022-12-03T19:12:31.113Z,101517.31
2022-12-03T19:14:57.463Z,101519.94
2022-12-03T19:17:23.920Z,101515.66
2022-12-03T19:19:50.225Z,101518.22
2022-12-03T19:22:16.571Z,101519.13
2022-12-03T19:24:43.589Z,101526.19
2022-12-03T19:27:09.995Z,101524.50
2022-12-03T19:29:36.310Z,101521.78
2022-12-03T19:32:02.731Z,101517.50
2022-12-03T19:34:29.797Z,101509.63
2022-12-03T19:36:56.239Z,101519.16
2022-12-03T19:39:22.572Z,101522.63
2022-12-03T19:41:48.937Z,101517.44
2022-12-03T19:44:17.365Z,101522.78
2022-12-03T19:46:44.142Z,101519.28
2022-12-03T19:49:11.320Z,101521.84
2022-12-03T19:51:38.039Z,101515.84
2022-12-03T19:54:06.332Z,101520.28
2022-12-03T19:56:32.756Z,101517.50
2022-12-03T19:58:59.106Z,101514.88
2022-12-03T20:01:28.333Z,101515.66
2022-12-03T20:03:57.300Z,101513.31
2022-12-03T20:06:27.367Z,101512.44
2022-12-03T20:09:02.119Z,101518.59
2022-12-03T20:11:31.179Z,101515.88
2022-12-03T20:14:03.265Z,101521.06
2022-12-03T20:16:30.233Z,101519.28
2022-12-03T20:18:59.192Z,101513.25
2022-12-03T20:21:25.986Z,101513.19
2022-12-03T20:23:52.972Z,101518.50
2022-12-03T20:26:20.960Z,101505.31
2022-12-03T20:28:50.180Z,101501.00
2022-12-03T20:31:19.079Z,101503.63
2022-12-03T20:33:48.295Z,101502.78
2022-12-03T20:36:16.376Z,101504.34
2022-12-03T20:38:44.875Z,101506.03
2022-12-03T20:41:14.528Z,101505.25
2022-12-03T20:43:41.118Z,101508.88
2022-12-03T20:46:19.501Z,101504.56
2022-12-03T20:48:46.249Z,101499.06
2022-12-03T20:51:18.290Z,101499.91
2022-12-03T20:53:45.316Z,101497.38
2022-12-03T20:56:20.386Z,101498.22
2022-12-03T20:58:48.849Z,101496.50
2022-12-03T21:01:18.537Z,101492.97
2022-12-03T21:03:49.484Z,101486.84
2022-12-03T21:06:16.592Z,101493.69
2022-12-03T21:08:43.705Z,101492.06
2022-12-03T21:11:15.782Z,101492.03
2022-12-03T21:13:43.790Z,101496.50
2022-12-03T21:16:14.888Z,101499.28
2022-12-03T21:18:42.383Z,101494.66
2022-12-03T21:21:11.622Z,101490.38
2022-12-03T21:23:38.034Z,101488.66
2022-12-03T21:26:12.730Z,101487.81
2022-12-03T21:28:41.065Z,101485.25
2022-12-03T21:31:09.804Z,101482.72
2022-12-03T21:33:37.134Z,101483.53
2022-12-03T21:36:04.841Z,101479.06
2022-12-03T21:38:32.145Z,101478.16
2022-12-03T21:40:59.224Z,101482.63
2022-12-03T21:43:25.773Z,101483.47
2022-12-03T21:45:52.496Z,101483.44
2022-12-03T21:48:20.137Z,101496.50
2022-12-03T21:50:59.261Z,101488.63
2022-12-03T21:53:25.938Z,101490.44
2022-12-03T21:55:52.281Z,101494.88
2022-12-03T21:58:18.617Z,101499.44
2022-12-03T22:00:44.938Z,101499.34
2022-12-03T22:03:11.301Z,101486.13
2022-12-03T22:05:38.442Z,101482.56
2022-12-03T22:08:05.142Z,101485.25
2022-12-03T22:10:31.512Z,101485.34
2022-12-03T22:12:57.818Z,101480.91
2022-12-03T22:15:24.152Z,101476.28
2022-12-03T22:17:50.512Z,101473.78
2022-12-03T22:20:16.845Z,101465.81
2022-12-03T22:22:43.234Z,101466.75
2022-12-03T22:25:09.827Z,101475.50
2022-12-03T22:27:36.156Z,101461.41
2022-12-03T22:30:03.714Z,101465.91
2022-12-03T22:32:30.068Z,101464.28
2022-12-03T22:34:56.427Z,101470.47
2022-12-03T22:37:22.816Z,101466.91
2022-12-03T22:39:49.131Z,101461.56
2022-12-03T22:42:15.454Z,101453.66
2022-12-03T22:44:41.967Z,101462.34
2022-12-03T22:47:08.381Z,101462.25
2022-12-03T22:49:34.836Z,101460.47
2022-12-03T22:52:01.169Z,101464.09
2022-12-03T22:54:27.511Z,101462.47
2022-12-03T22:56:53.819Z,101456.19
2022-12-03T22:59:20.128Z,101458.84
2022-12-03T23:01:47.265Z,101453.66
2022-12-03T23:04:13.620Z,101453.66
2022-12-03T23:06:40.120Z,101443.97
2022-12-03T23:09:07.980Z,101449.44
2022-12-03T23:11:34.713Z,101441.41
2022-12-03T23:14:01.410Z,101451.16
2022-12-03T23:16:30.153Z,101444.84
2022-12-03T23:19:01.647Z,101444.13
2022-12-03T23:21:30.905Z,101442.34
2022-12-03T23:24:01.915Z,101442.34
2022-12-03T23:26:28.854Z,101440.47
2022-12-03T23:28:56.319Z,101440.56
2022-12-03T23:31:26.157Z,101438.06
2022-12-03T23:33:53.461Z,101445.88
2022-12-03T23:36:20.705Z,101438.00
2022-12-03T23:38:47.116Z,101435.38
2022-12-03T23:41:16.176Z,101435.28
2022-12-03T23:43:42.812Z,101437.06
2022-12-03T23:46:15.471Z,101439.63
2022-12-03T23:48:42.231Z,101424.75
2022-12-03T23:51:14.242Z,101423.75
2022-12-03T23:53:41.030Z,101412.38
2022-12-03T23:56:12.886Z,101409.72
2022-12-03T23:58:39.324Z,101409.78
